sensor_id;sensor_type;location;lat;lon;timestamp;pressure;altitude;pressure_sealevel;temperature;humidity
53868;BME280;41577;47.470;19.080;2023-02-17T00:00:03;101104.38;;;4.04;100.00
53868;BME280;41577;47.470;19.080;2023-02-17T00:00:16;101110.53;;;4.04;100.00
53868;BME280;41577;47.470;19.080;2023-02-17T00:00:28;101102.72;;;4.03;100.00
53868;BME280;41577;47.470;19.080;2023-02-17T00:00:40;101108.00;;;4.03;100.00
53868;BME280;41577;47.470;19.080;2023-02-17T00:00:52;101105.34;;;4.03;100.00
53868;BME280;41577;47.470;19.080;2023-02-17T00:01:08;101106.06;;;4.05;100.00
53868;BME280;41577;47.470;19.080;2023-02-17T00:01:21;101107.03;;;4.04;100.00
53868;BME280;41577;47.470;19.080;2023-02-17T00:01:32;101107.03;;;4.04;100.00
53868;BME280;41577;47.470;19.080;2023-02-17T00:01:43;101111.34;;;4.05;100.00
53868;BME280;41577;47.470;19.080;2023-02-17T00:01:54;101110.38;;;4.06;100.00
53868;BME280;41577;47.470;19.080;2023-02-17T00:02:05;101106.91;;;4.05;100.00
53868;BME280;41577;47.470;19.080;2023-02-17T00:02:15;101105.25;;;4.04;100.00
53868;BME280;41577;47.470;19.080;2023-02-17T00:02:27;101107.03;;;4.04;100.00
53868;BME280;41577;47.470;19.080;2023-02-17T00:02:38;101103.53;;;4.03;100.00
53868;BME280;41577;47.470;19.080;2023-02-17T00:02:49;101106.06;;;4.05;100.00
53868;BME280;41577;47.470;19.080;2023-02-17T00:03:04;101104.25;;;4.05;100.00
53868;BME280;41577;47.470;19.080;2023-02-17T00:03:16;101100.91;;;4.03;100.00
53868;BME280;41577;47.470;19.080;2023-02-17T00:03:26;101107.03;;;4.04;100.00
53868;BME280;41577;47.470;19.080;2023-02-17T00:03:37;101109.66;;;4.04;100.00
53868;BME280;41577;47.470;19.080;2023-02-17T00:03:49;101106.19;;;4.03;100.00
53868;BME280;41577;47.470;19.080;2023-02-17T00:04:02;101107.16;;;4.02;100.00
53868;BME280;41577;47.470;19.080;2023-02-17T00:04:13;101111.63;;;4.02;100.00
53868;BME280;41577;47.470;19.080;2023-02-17T00:04:26;101105.63;;;4.00;100.00
53868;BME280;41577;47.470;19.080;2023-02-17T00:04:37;101108.25;;;4.00;100.00
53868;BME280;41577;47.470;19.080;2023-02-17T00:04:48;101107.28;;;4.01;100.00
53868;BME280;41577;47.470;19.080;2023-02-17T00:04:59;101113.53;;;4.00;100.00
53868;BME280;41577;47.470;19.080;2023-02-17T00:05:10;101109.22;;;3.98;100.00
53868;BME280;41577;47.470;19.080;2023-02-17T00:05:20;101102.97;;;4.00;100.00
53868;BME280;41577;47.470;19.080;2023-02-17T00:05:31;101105.72;;;3.98;100.00
53868;BME280;41577;47.470;19.080;2023-02-17T00:05:42;101104.75;;;3.99;100.00
53868;BME280;41577;47.470;19.080;2023-02-17T00:05:53;101103.91;;;3.98;100.00
53868;BME280;41577;47.470;19.080;2023-02-17T00:06:05;101108.25;;;4.00;100.00
53868;BME280;41577;47.470;19.080;2023-02-17T00:06:17;101102.13;;;3.99;100.00
53868;BME280;41577;47.470;19.080;2023-02-17T00:06:30;101103.81;;;4.00;100.00
53868;BME280;41577;47.470;19.080;2023-02-17T00:06:41;101103.81;;;4.00;100.00
53868;BME280;41577;47.470;19.080;2023-02-17T00:06:52;101104.63;;;4.01;100.00
53868;BME280;41577;47.470;19.080;2023-02-17T00:07:04;101104.63;;;4.01;100.00
53868;BME280;41577;47.470;19.080;2023-02-17T00:07:14;101098.41;;;4.02;100.00
53868;BME280;41577;47.470;19.080;2023-02-17T00:07:25;101101.03;;;4.02;100.00
53868;BME280;41577;47.470;19.080;2023-02-17T00:07:39;101102.81;;;4.01;100.00
53868;BME280;41577;47.470;19.080;2023-02-17T00:07:50;101106.34;;;4.02;100.00
53868;BME280;41577;47.470;19.080;2023-02-17T00:08:01;101101.03;;;4.02;100.00
53868;BME280;41577;47.470;19.080;2023-02-17T00:08:12;101101.88;;;4.02;100.00
53868;BME280;41577;47.470;19.080;2023-02-17T00:08:23;101099.34;;;4.01;100.00
53868;BME280;41577;47.470;19.080;2023-02-17T00:08:33;101107.16;;;4.02;100.00
53868;BME280;41577;47.470;19.080;2023-02-17T00:08:47;101095.06;;;4.00;100.00
53868;BME280;41577;47.470;19.080;2023-02-17T00:08:58;101095.44;;;3.95;100.00
53868;BME280;41577;47.470;19.080;2023-02-17T00:09:09;101101.03;;;4.02;100.00
53868;BME280;41577;47.470;19.080;2023-02-17T00:09:20;101099.34;;;4.01;100.00
53868;BME280;41577;47.470;19.080;2023-02-17T00:09:31;101099.34;;;4.01;100.00
53868;BME280;41577;47.470;19.080;2023-02-17T00:09:42;101099.34;;;4.01;100.00
53868;BME280;41577;47.470;19.080;2023-02-17T00:09:53;101102.97;;;4.00;100.00
53868;BME280;41577;47.470;19.080;2023-02-17T00:10:05;101100.34;;;4.00;100.00
53868;BME280;41577;47.470;19.080;2023-02-17T00:10:17;101102.38;;;3.96;100.00
53868;BME280;41577;47.470;19.080;2023-02-17T00:10:28;101103.81;;;4.00;100.00
53868;BME280;41577;47.470;19.080;2023-02-17T00:10:39;101105.84;;;3.96;100.00
53868;BME280;41577;47.470;19.080;2023-02-17T00:10:56;101106.72;;;3.97;100.00
53868;BME280;41577;47.470;19.080;2023-02-17T00:11:09;101103.19;;;3.96;100.00
53868;BME280;41577;47.470;19.080;2023-02-17T00:11:20;101100.72;;;3.95;100.00
53868;BME280;41577;47.470;19.080;2023-02-17T00:11:31;101108.75;;;3.93;100.00
53868;BME280;41577;47.470;19.080;2023-02-17T00:11:42;101109.59;;;3.94;100.00
53868;BME280;41577;47.470;19.080;2023-02-17T00:11:53;101102.63;;;3.93;100.00
53868;BME280;41577;47.470;19.080;2023-02-17T00:12:04;101108.88;;;3.92;100.00
53868;BME280;41577;47.470;19.080;2023-02-17T00:12:15;101109.84;;;3.91;100.00
53868;BME280;41577;47.470;19.080;2023-02-17T00:12:26;101109.84;;;3.91;100.00
53868;BME280;41577;47.470;19.080;2023-02-17T00:12:38;101107.31;;;3.89;100.00
53868;BME280;41577;47.470;19.080;2023-02-17T00:12:49;101109.97;;;3.89;100.00
53868;BME280;41577;47.470;19.080;2023-02-17T00:13:00;101103.97;;;3.87;100.00
53868;BME280;41577;47.470;19.080;2023-02-17T00:13:11;101105.78;;;3.87;100.00
53868;BME280;41577;47.470;19.080;2023-02-17T00:13:22;101103.00;;;3.88;100.00
53868;BME280;41577;47.470;19.080;2023-02-17T00:13:33;101113.69;;;3.87;100.00
53868;BME280;41577;47.470;19.080;2023-02-17T00:13:44;101104.94;;;3.86;100.00
53868;BME280;41577;47.470;19.080;2023-02-17T00:13:55;101106.75;;;3.86;100.00
53868;BME280;41577;47.470;19.080;2023-02-17T00:14:06;101106.75;;;3.86;100.00
53868;BME280;41577;47.470;19.080;2023-02-17T00:14:17;101098.81;;;3.86;100.00
53868;BME280;41577;47.470;19.080;2023-02-17T00:14:28;101104.22;;;3.84;100.00
53868;BME280;41577;47.470;19.080;2023-02-17T00:14:39;101108.53;;;3.85;100.00
53868;BME280;41577;47.470;19.080;2023-02-17T00:14:50;101107.69;;;3.85;100.00
53868;BME280;41577;47.470;19.080;2023-02-17T00:15:01;101099.78;;;3.85;100.00
53868;BME280;41577;47.470;19.080;2023-02-17T00:15:12;101104.22;;;3.84;100.00
53868;BME280;41577;47.470;19.080;2023-02-17T00:15:23;101102.66;;;3.82;100.00
53868;BME280;41577;47.470;19.080;2023-02-17T00:15:37;101102.56;;;3.83;100.00
53868;BME280;41577;47.470;19.080;2023-02-17T00:15:48;101104.34;;;3.83;100.00
53868;BME280;41577;47.470;19.080;2023-02-17T00:15:59;101094.28;;;3.76;100.00
53868;BME280;41577;47.470;19.080;2023-02-17T00:16:12;101108.78;;;3.82;100.00
53868;BME280;41577;47.470;19.080;2023-02-17T00:16:26;101110.72;;;3.80;100.00
53868;BME280;41577;47.470;19.080;2023-02-17T00:16:38;101107.25;;;3.80;100.00
53868;BME280;41577;47.470;19.080;2023-02-17T00:16:49;101103.75;;;3.79;100.00
53868;BME280;41577;47.470;19.080;2023-02-17T00:17:00;101109.03;;;3.79;100.00
53868;BME280;41577;47.470;19.080;2023-02-17T00:17:10;101112.63;;;3.78;100.00
53868;BME280;41577;47.470;19.080;2023-02-17T00:17:21;101109.16;;;3.77;100.00
53868;BME280;41577;47.470;19.080;2023-02-17T00:17:32;101103.03;;;3.77;100.00
53868;BME280;41577;47.470;19.080;2023-02-17T00:17:43;101102.22;;;3.76;100.00
53868;BME280;41577;47.470;19.080;2023-02-17T00:17:54;101106.63;;;3.76;100.00
53868;BME280;41577;47.470;19.080;2023-02-17T00:18:05;101107.50;;;3.76;100.00
53868;BME280;41577;47.470;19.080;2023-02-17T00:18:15;101104.97;;;3.75;100.00
53868;BME280;41577;47.470;19.080;2023-02-17T00:18:26;101094.66;;;3.72;100.00
53868;BME280;41577;47.470;19.080;2023-02-17T00:18:37;101102.44;;;3.73;100.00
53868;BME280;41577;47.470;19.080;2023-02-17T00:18:52;101104.25;;;3.73;100.00
53868;BME280;41577;47.470;19.080;2023-02-17T00:19:03;101106.88;;;3.73;100.00
53868;BME280;41577;47.470;19.080;2023-02-17T00:19:14;101105.22;;;3.72;100.00
53868;BME280;41577;47.470;19.080;2023-02-17T00:19:26;101103.53;;;3.71;100.00
53868;BME280;41577;47.470;19.080;2023-02-17T00:19:37;101104.38;;;3.71;100.00
53868;BME280;41577;47.470;19.080;2023-02-17T00:19:48;101114.94;;;3.71;100.00
53868;BME280;41577;47.470;19.080;2023-02-17T00:19:59;101107.97;;;3.70;100.00
53868;BME280;41577;47.470;19.080;2023-02-17T00:20:11;101104.50;;;3.70;100.00
53868;BME280;41577;47.470;19.080;2023-02-17T00:20:22;101104.50;;;3.70;100.00
53868;BME280;41577;47.470;19.080;2023-02-17T00:20:33;101108.09;;;3.69;100.00
53868;BME280;41577;47.470;19.080;2023-02-17T00:20:44;101098.50;;;3.68;100.00
53868;BME280;41577;47.470;19.080;2023-02-17T00:20:54;101108.25;;;3.67;100.00
53868;BME280;41577;47.470;19.080;2023-02-17T00:21:14;101098.63;;;3.66;100.00
53868;BME280;41577;47.470;19.080;2023-02-17T00:21:27;101103.91;;;3.66;100.00
53868;BME280;41577;47.470;19.080;2023-02-17T00:21:38;101100.44;;;3.66;100.00
53868;BME280;41577;47.470;19.080;2023-02-17T00:21:50;101106.66;;;3.65;100.00
53868;BME280;41577;47.470;19.080;2023-02-17T00:22:01;101106.66;;;3.65;100.00
53868;BME280;41577;47.470;19.080;2023-02-17T00:22:12;101098.88;;;3.63;100.00
53868;BME280;41577;47.470;19.080;2023-02-17T00:22:23;101105.00;;;3.64;100.00
53868;BME280;41577;47.470;19.080;2023-02-17T00:22:35;101108.47;;;3.64;100.00
53868;BME280;41577;47.470;19.080;2023-02-17T00:22:46;101105.00;;;3.64;100.00
53868;BME280;41577;47.470;19.080;2023-02-17T00:22:56;101107.63;;;3.64;100.00
53868;BME280;41577;47.470;19.080;2023-02-17T00:23:07;101109.31;;;3.65;100.00
53868;BME280;41577;47.470;19.080;2023-02-17T00:23:18;101106.44;;;3.68;100.00
53868;BME280;41577;47.470;19.080;2023-02-17T00:23:30;101103.91;;;3.66;100.00
53868;BME280;41577;47.470;19.080;2023-02-17T00:23:41;101111.72;;;3.68;100.00
53868;BME280;41577;47.470;19.080;2023-02-17T00:23:52;101108.25;;;3.67;100.00
53868;BME280;41577;47.470;19.080;2023-02-17T00:24:03;101106.44;;;3.68;100.00
53868;BME280;41577;47.470;19.080;2023-02-17T00:24:14;101103.06;;;3.66;100.00
53868;BME280;41577;47.470;19.080;2023-02-17T00:24:27;101108.34;;;3.66;100.00
53868;BME280;41577;47.470;19.080;2023-02-17T00:24:39;101104.75;;;3.67;100.00
53868;BME280;41577;47.470;19.080;2023-02-17T00:24:50;101106.53;;;3.66;100.00
53868;BME280;41577;47.470;19.080;2023-02-17T00:25:02;101100.53;;;3.64;100.00
53868;BME280;41577;47.470;19.080;2023-02-17T00:25:13;101103.19;;;3.64;100.00
53868;BME280;41577;47.470;19.080;2023-02-17T00:25:24;101105.72;;;3.66;100.00
53868;BME280;41577;47.470;19.080;2023-02-17T00:25:36;101108.47;;;3.64;100.00
53868;BME280;41577;47.470;19.080;2023-02-17T00:25:48;101105.00;;;3.64;100.00
53868;BME280;41577;47.470;19.080;2023-02-17T00:25:59;101099.00;;;3.62;100.00
53868;BME280;41577;47.470;19.080;2023-02-17T00:26:15;101109.56;;;3.62;100.00
53868;BME280;41577;47.470;19.080;2023-02-17T00:26:27;101095.06;;;3.56;100.00
53868;BME280;41577;47.470;19.080;2023-02-17T00:26:38;101096.13;;;3.53;100.00
53868;BME280;41577;47.470;19.080;2023-02-17T00:26:50;101112.47;;;3.59;100.00
53868;BME280;41577;47.470;19.080;2023-02-17T00:27:00;101108.13;;;3.58;100.00
53868;BME280;41577;47.470;19.080;2023-02-17T00:27:11;101104.66;;;3.57;100.00
53868;BME280;41577;47.470;19.080;2023-02-17T00:27:22;101104.75;;;3.55;100.00
53868;BME280;41577;47.470;19.080;2023-02-17T00:27:35;101097.69;;;3.56;100.00
53868;BME280;41577;47.470;19.080;2023-02-17T00:27:45;101098.66;;;3.55;100.00
53868;BME280;41577;47.470;19.080;2023-02-17T00:27:56;101104.91;;;3.54;100.00
53868;BME280;41577;47.470;19.080;2023-02-17T00:28:07;101100.00;;;3.49;100.00
53868;BME280;41577;47.470;19.080;2023-02-17T00:28:18;101103.34;;;3.51;100.00
53868;BME280;41577;47.470;19.080;2023-02-17T00:28:29;101107.78;;;3.51;100.00
53868;BME280;41577;47.470;19.080;2023-02-17T00:28:40;101106.94;;;3.50;100.00
53868;BME280;41577;47.470;19.080;2023-02-17T00:28:51;101106.09;;;3.50;100.00
53868;BME280;41577;47.470;19.080;2023-02-17T00:29:02;101108.75;;;3.50;100.00
53868;BME280;41577;47.470;19.080;2023-02-17T00:29:13;101111.38;;;3.50;100.00
53868;BME280;41577;47.470;19.080;2023-02-17T00:29:25;101108.03;;;3.48;100.00
53868;BME280;41577;47.470;19.080;2023-02-17T00:29:36;101107.91;;;3.49;100.00
53868;BME280;41577;47.470;19.080;2023-02-17T00:29:48;101106.22;;;3.48;100.00
53868;BME280;41577;47.470;19.080;2023-02-17T00:29:58;101095.66;;;3.48;100.00
53868;BME280;41577;47.470;19.080;2023-02-17T00:30:11;101100.94;;;3.48;100.00
53868;BME280;41577;47.470;19.080;2023-02-17T00:30:22;101096.63;;;3.47;100.00
53868;BME280;41577;47.470;19.080;2023-02-17T00:30:33;101103.72;;;3.47;100.00
53868;BME280;41577;47.470;19.080;2023-02-17T00:30:45;101103.72;;;3.47;100.00
53868;BME280;41577;47.470;19.080;2023-02-17T00:30:56;101099.38;;;3.46;100.00
53868;BME280;41577;47.470;19.080;2023-02-17T00:31:07;101101.19;;;3.45;100.00
53868;BME280;41577;47.470;19.080;2023-02-17T00:31:19;101105.63;;;3.45;100.00
53868;BME280;41577;47.470;19.080;2023-02-17T00:31:31;101094.22;;;3.44;100.00
53868;BME280;41577;47.470;19.080;2023-02-17T00:31:43;101100.47;;;3.43;100.00
53868;BME280;41577;47.470;19.080;2023-02-17T00:31:54;101101.44;;;3.42;100.00
53868;BME280;41577;47.470;19.080;2023-02-17T00:32:07;101096.16;;;3.42;100.00
53868;BME280;41577;47.470;19.080;2023-02-17T00:32:19;101105.88;;;3.42;100.00
53868;BME280;41577;47.470;19.080;2023-02-17T00:32:30;101096.28;;;3.41;100.00
53868;BME280;41577;47.470;19.080;2023-02-17T00:32:41;101101.56;;;3.41;100.00
53868;BME280;41577;47.470;19.080;2023-02-17T00:32:52;101101.56;;;3.41;100.00
53868;BME280;41577;47.470;19.080;2023-02-17T00:33:05;101099.03;;;3.39;100.00
53868;BME280;41577;47.470;19.080;2023-02-17T00:33:16;101099.03;;;3.39;100.00
53868;BME280;41577;47.470;19.080;2023-02-17T00:33:27;101100.94;;;3.37;100.00
53868;BME280;41577;47.470;19.080;2023-02-17T00:33:38;101100.94;;;3.37;100.00
53868;BME280;41577;47.470;19.080;2023-02-17T00:33:49;101095.81;;;3.35;100.00
53868;BME280;41577;47.470;19.080;2023-02-17T00:33:59;101103.72;;;3.35;100.00
53868;BME280;41577;47.470;19.080;2023-02-17T00:34:10;101096.19;;;3.31;100.00
53868;BME280;41577;47.470;19.080;2023-02-17T00:34:21;101095.09;;;3.33;100.00
53868;BME280;41577;47.470;19.080;2023-02-17T00:34:32;101103.13;;;3.32;100.00
53868;BME280;41577;47.470;19.080;2023-02-17T00:34:43;101102.28;;;3.31;100.00
53868;BME280;41577;47.470;19.080;2023-02-17T00:34:54;101106.75;;;3.31;100.00
53868;BME280;41577;47.470;19.080;2023-02-17T00:35:06;101103.38;;;3.29;100.00
53868;BME280;41577;47.470;19.080;2023-02-17T00:35:17;101101.69;;;3.28;100.00
53868;BME280;41577;47.470;19.080;2023-02-17T00:35:28;101098.31;;;3.26;100.00
53868;BME280;41577;47.470;19.080;2023-02-17T00:35:39;101098.31;;;3.26;100.00
53868;BME280;41577;47.470;19.080;2023-02-17T00:35:50;101101.94;;;3.25;100.00
53868;BME280;41577;47.470;19.080;2023-02-17T00:36:05;101097.59;;;3.24;100.00
53868;BME280;41577;47.470;19.080;2023-02-17T00:36:18;101099.53;;;3.22;100.00
53868;BME280;41577;47.470;19.080;2023-02-17T00:36:29;101098.69;;;3.21;100.00
53868;BME280;41577;47.470;19.080;2023-02-17T00:36:41;101097.97;;;3.19;100.00
53868;BME280;41577;47.470;19.080;2023-02-17T00:36:53;101094.63;;;3.17;100.00
53868;BME280;41577;47.470;19.080;2023-02-17T00:37:04;101096.41;;;3.17;100.00
53868;BME280;41577;47.470;19.080;2023-02-17T00:37:16;101095.56;;;3.16;100.00
53868;BME280;41577;47.470;19.080;2023-02-17T00:37:28;101100.97;;;3.14;100.00
53868;BME280;41577;47.470;19.080;2023-02-17T00:37:39;101095.81;;;3.13;100.00
53868;BME280;41577;47.470;19.080;2023-02-17T00:37:50;101096.75;;;3.12;100.00
53868;BME280;41577;47.470;19.080;2023-02-17T00:38:01;101096.91;;;3.10;100.00
53868;BME280;41577;47.470;19.080;2023-02-17T00:38:12;101096.91;;;3.10;100.00
53868;BME280;41577;47.470;19.080;2023-02-17T00:38:23;101093.41;;;3.10;100.00
53868;BME280;41577;47.470;19.080;2023-02-17T00:38:34;101097.97;;;3.08;100.00
53868;BME280;41577;47.470;19.080;2023-02-17T00:38:45;101096.19;;;3.08;100.00
53868;BME280;41577;47.470;19.080;2023-02-17T00:38:57;101102.53;;;3.06;100.00
53868;BME280;41577;47.470;19.080;2023-02-17T00:39:10;101099.03;;;3.05;100.00
53868;BME280;41577;47.470;19.080;2023-02-17T00:39:22;101098.47;;;3.02;100.00
53868;BME280;41577;47.470;19.080;2023-02-17T00:39:33;101101.94;;;3.02;100.00
53868;BME280;41577;47.470;19.080;2023-02-17T00:39:44;101103.84;;;3.00;100.00
53868;BME280;41577;47.470;19.080;2023-02-17T00:39:54;101098.00;;;2.97;100.00
53868;BME280;41577;47.470;19.080;2023-02-17T00:40:06;101103.97;;;2.99;100.00
53868;BME280;41577;47.470;19.080;2023-02-17T00:40:18;101102.28;;;2.98;100.00
53868;BME280;41577;47.470;19.080;2023-02-17T00:40:30;101104.94;;;2.98;100.00
53868;BME280;41577;47.470;19.080;2023-02-17T00:40:42;101097.00;;;2.98;100.00
53868;BME280;41577;47.470;19.080;2023-02-17T00:40:53;101108.53;;;2.97;100.00
53868;BME280;41577;47.470;19.080;2023-02-17T00:41:04;101107.69;;;2.96;100.00
53868;BME280;41577;47.470;19.080;2023-02-17T00:41:17;101106.94;;;2.94;100.00
53868;BME280;41577;47.470;19.080;2023-02-17T00:41:28;101096.66;;;2.91;100.00
53868;BME280;41577;47.470;19.080;2023-02-17T00:41:42;101102.53;;;2.95;100.00
53868;BME280;41577;47.470;19.080;2023-02-17T00:41:53;101106.25;;;2.92;100.00
53868;BME280;41577;47.470;19.080;2023-02-17T00:42:05;101099.19;;;2.92;100.00
53868;BME280;41577;47.470;19.080;2023-02-17T00:42:16;101094.84;;;2.91;100.00
53868;BME280;41577;47.470;19.080;2023-02-17T00:42:27;101096.66;;;2.91;100.00
53868;BME280;41577;47.470;19.080;2023-02-17T00:42:38;101099.28;;;2.91;100.00
53868;BME280;41577;47.470;19.080;2023-02-17T00:42:49;101099.53;;;2.88;100.00
53868;BME280;41577;47.470;19.080;2023-02-17T00:43:00;101100.25;;;2.90;100.00
53868;BME280;41577;47.470;19.080;2023-02-17T00:43:11;101098.56;;;2.89;100.00
53868;BME280;41577;47.470;19.080;2023-02-17T00:43:22;101095.94;;;2.89;100.00
53868;BME280;41577;47.470;19.080;2023-02-17T00:43:33;101099.41;;;2.89;100.00
53868;BME280;41577;47.470;19.080;2023-02-17T00:43:44;101098.56;;;2.89;100.00
53868;BME280;41577;47.470;19.080;2023-02-17T00:43:55;101100.47;;;2.87;100.00
53868;BME280;41577;47.470;19.080;2023-02-17T00:44:06;101100.38;;;2.88;100.00
53868;BME280;41577;47.470;19.080;2023-02-17T00:44:19;101099.53;;;2.88;100.00
53868;BME280;41577;47.470;19.080;2023-02-17T00:44:30;101097.84;;;2.87;100.00
53868;BME280;41577;47.470;19.080;2023-02-17T00:44:41;101097.84;;;2.87;100.00
53868;BME280;41577;47.470;19.080;2023-02-17T00:44:53;101099.53;;;2.88;100.00
53868;BME280;41577;47.470;19.080;2023-02-17T00:45:04;101097.97;;;2.85;100.00
53868;BME280;41577;47.470;19.080;2023-02-17T00:45:17;101086.56;;;2.85;100.00
53868;BME280;41577;47.470;19.080;2023-02-17T00:45:28;101102.16;;;2.88;100.00
53868;BME280;41577;47.470;19.080;2023-02-17T00:45:39;101103.13;;;2.87;100.00
53868;BME280;41577;47.470;19.080;2023-02-17T00:45:50;101100.47;;;2.87;100.00
53868;BME280;41577;47.470;19.080;2023-02-17T00:46:01;101097.84;;;2.87;100.00
53868;BME280;41577;47.470;19.080;2023-02-17T00:46:12;101101.44;;;2.86;100.00
53868;BME280;41577;47.470;19.080;2023-02-17T00:46:23;101100.63;;;2.85;100.00
53868;BME280;41577;47.470;19.080;2023-02-17T00:46:36;101096.19;;;2.86;100.00
53868;BME280;41577;47.470;19.080;2023-02-17T00:46:47;101101.66;;;2.83;100.00
53868;BME280;41577;47.470;19.080;2023-02-17T00:46:58;101095.34;;;2.85;100.00
53868;BME280;41577;47.470;19.080;2023-02-17T00:47:09;101101.44;;;2.86;100.00
53868;BME280;41577;47.470;19.080;2023-02-17T00:47:19;101102.38;;;2.85;100.00
53868;BME280;41577;47.470;19.080;2023-02-17T00:47:31;101105.03;;;2.85;100.00
53868;BME280;41577;47.470;19.080;2023-02-17T00:47:42;101101.56;;;2.84;100.00
53868;BME280;41577;47.470;19.080;2023-02-17T00:47:54;101096.28;;;2.84;100.00
53868;BME280;41577;47.470;19.080;2023-02-17T00:48:05;101094.72;;;2.82;100.00
53868;BME280;41577;47.470;19.080;2023-02-17T00:48:16;101106.84;;;2.84;100.00
53868;BME280;41577;47.470;19.080;2023-02-17T00:48:29;101098.34;;;2.81;100.00
53868;BME280;41577;47.470;19.080;2023-02-17T00:48:39;101099.88;;;2.83;100.00
53868;BME280;41577;47.470;19.080;2023-02-17T00:48:51;101102.53;;;2.83;100.00
53868;BME280;41577;47.470;19.080;2023-02-17T00:49:03;101104.19;;;2.84;100.00
53868;BME280;41577;47.470;19.080;2023-02-17T00:49:15;101105.03;;;2.85;100.00
53868;BME280;41577;47.470;19.080;2023-02-17T00:49:26;101104.19;;;2.84;100.00
53868;BME280;41577;47.470;19.080;2023-02-17T00:49:37;101106.84;;;2.84;100.00
53868;BME280;41577;47.470;19.080;2023-02-17T00:49:48;101101.44;;;2.86;100.00
53868;BME280;41577;47.470;19.080;2023-02-17T00:49:59;101102.38;;;2.85;100.00
53868;BME280;41577;47.470;19.080;2023-02-17T00:50:11;101105.91;;;2.85;100.00
53868;BME280;41577;47.470;19.080;2023-02-17T00:50:22;101105.03;;;2.85;100.00
53868;BME280;41577;47.470;19.080;2023-02-17T00:50:33;101099.75;;;2.85;100.00
53868;BME280;41577;47.470;19.080;2023-02-17T00:50:48;101101.56;;;2.84;100.00
53868;BME280;41577;47.470;19.080;2023-02-17T00:50:59;101107.66;;;2.85;100.00
53868;BME280;41577;47.470;19.080;2023-02-17T00:51:11;101093.06;;;2.81;100.00
53868;BME280;41577;47.470;19.080;2023-02-17T00:51:22;101102.38;;;2.85;100.00
53868;BME280;41577;47.470;19.080;2023-02-17T00:51:33;101112.94;;;2.85;100.00
53868;BME280;41577;47.470;19.080;2023-02-17T00:51:44;101103.38;;;2.84;100.00
53868;BME280;41577;47.470;19.080;2023-02-17T00:51:58;101103.38;;;2.84;100.00
53868;BME280;41577;47.470;19.080;2023-02-17T00:52:09;101105.03;;;2.85;100.00
53868;BME280;41577;47.470;19.080;2023-02-17T00:52:20;101111.16;;;2.85;100.00
53868;BME280;41577;47.470;19.080;2023-02-17T00:52:31;101107.66;;;2.85;100.00
53868;BME280;41577;47.470;19.080;2023-02-17T00:52:42;101111.16;;;2.85;100.00
53868;BME280;41577;47.470;19.080;2023-02-17T00:52:53;101106.84;;;2.84;100.00
53868;BME280;41577;47.470;19.080;2023-02-17T00:53:04;101101.44;;;2.86;100.00
53868;BME280;41577;47.470;19.080;2023-02-17T00:53:17;101113.81;;;2.85;100.00
53868;BME280;41577;47.470;19.080;2023-02-17T00:53:28;101104.91;;;2.86;100.00
53868;BME280;41577;47.470;19.080;2023-02-17T00:53:39;101101.44;;;2.86;100.00
53868;BME280;41577;47.470;19.080;2023-02-17T00:53:50;101105.91;;;2.85;100.00
53868;BME280;41577;47.470;19.080;2023-02-17T00:54:01;101109.38;;;2.86;100.00
53868;BME280;41577;47.470;19.080;2023-02-17T00:54:12;101105.75;;;2.87;100.00
53868;BME280;41577;47.470;19.080;2023-02-17T00:54:23;101107.56;;;2.86;100.00
53868;BME280;41577;47.470;19.080;2023-02-17T00:54:34;101103.25;;;2.85;100.00
53868;BME280;41577;47.470;19.080;2023-02-17T00:54:46;101107.44;;;2.88;100.00
53868;BME280;41577;47.470;19.080;2023-02-17T00:54:57;101105.75;;;2.87;100.00
53868;BME280;41577;47.470;19.080;2023-02-17T00:55:08;101103.97;;;2.87;100.00
53868;BME280;41577;47.470;19.080;2023-02-17T00:55:20;101110.09;;;2.88;100.00
53868;BME280;41577;47.470;19.080;2023-02-17T00:55:32;101104.81;;;2.88;100.00
53868;BME280;41577;47.470;19.080;2023-02-17T00:55:43;101103.84;;;2.89;100.00
53868;BME280;41577;47.470;19.080;2023-02-17T00:55:55;101106.47;;;2.89;100.00
53868;BME280;41577;47.470;19.080;2023-02-17T00:56:06;101111.75;;;2.89;100.00
53868;BME280;41577;47.470;19.080;2023-02-17T00:56:18;101104.66;;;2.89;100.00
53868;BME280;41577;47.470;19.080;2023-02-17T00:56:29;101109.13;;;2.89;100.00
53868;BME280;41577;47.470;19.080;2023-02-17T00:56:40;101109.13;;;2.89;100.00
53868;BME280;41577;47.470;19.080;2023-02-17T00:56:51;101108.03;;;2.91;100.00
53868;BME280;41577;47.470;19.080;2023-02-17T00:57:02;101097.63;;;2.90;100.00
53868;BME280;41577;47.470;19.080;2023-02-17T00:57:16;101111.66;;;2.90;100.00
53868;BME280;41577;47.470;19.080;2023-02-17T00:57:26;101108.19;;;2.90;100.00
53868;BME280;41577;47.470;19.080;2023-02-17T00:57:37;101101.94;;;2.91;100.00
53868;BME280;41577;47.470;19.080;2023-02-17T00:57:49;101106.38;;;2.90;100.00
53868;BME280;41577;47.470;19.080;2023-02-17T00:58:00;101105.53;;;2.90;100.00
53868;BME280;41577;47.470;19.080;2023-02-17T00:58:11;101104.56;;;2.91;100.00
53868;BME280;41577;47.470;19.080;2023-02-17T00:58:22;101109.84;;;2.91;100.00
53868;BME280;41577;47.470;19.080;2023-02-17T00:58:33;101105.53;;;2.90;100.00
53868;BME280;41577;47.470;19.080;2023-02-17T00:58:45;101101.94;;;2.91;100.00
53868;BME280;41577;47.470;19.080;2023-02-17T00:58:57;101104.56;;;2.91;100.00
53868;BME280;41577;47.470;19.080;2023-02-17T00:59:08;101104.56;;;2.91;100.00